sensor_id;sensor_type;location;lat;lon;timestamp;pressure;altitude;pressure_sealevel;temperature
73734;BMP280;62039;50.000;9.064;2022-10-16T00:00:53;100058.72;;;15.37
73734;BMP280;62039;50.000;9.064;2022-10-16T00:03:19;100057.47;;;15.33
73734;BMP280;62039;50.000;9.064;2022-10-16T00:05:46;100053.19;;;15.31
73734;BMP280;62039;50.000;9.064;2022-10-16T00:08:12;100057.88;;;15.29
73734;BMP280;62039;50.000;9.064;2022-10-16T00:10:40;100052.00;;;15.27
73734;BMP280;62039;50.000;9.064;2022-10-16T00:13:07;100054.19;;;15.24
73734;BMP280;62039;50.000;9.064;2022-10-16T00:15:35;100059.66;;;15.22
73734;BMP280;62039;50.000;9.064;2022-10-16T00:18:02;100052.78;;;15.21
73734;BMP280;62039;50.000;9.064;2022-10-16T00:20:28;100060.69;;;15.21
73734;BMP280;62039;50.000;9.064;2022-10-16T00:22:55;100051.78;;;15.22
73734;BMP280;62039;50.000;9.064;2022-10-16T00:25:21;100053.19;;;15.25
73734;BMP280;62039;50.000;9.064;2022-10-16T00:27:49;100052.00;;;15.27
73734;BMP280;62039;50.000;9.064;2022-10-16T00:30:16;100054.00;;;15.25
73734;BMP280;62039;50.000;9.064;2022-10-16T00:32:42;100056.03;;;15.23
73734;BMP280;62039;50.000;9.064;2022-10-16T00:35:09;100060.69;;;15.21
73734;BMP280;62039;50.000;9.064;2022-10-16T00:37:35;100059.03;;;15.20
73734;BMP280;62039;50.000;9.064;2022-10-16T00:40:02;100063.50;;;15.20
73734;BMP280;62039;50.000;9.064;2022-10-16T00:42:28;100059.03;;;15.20
73734;BMP280;62039;50.000;9.064;2022-10-16T00:44:57;100064.31;;;15.20
73734;BMP280;62039;50.000;9.064;2022-10-16T00:47:27;100067.13;;;15.19
73734;BMP280;62039;50.000;9.064;2022-10-16T00:49:59;100068.34;;;15.16
73734;BMP280;62039;50.000;9.064;2022-10-16T00:52:26;100074.81;;;15.14
73734;BMP280;62039;50.000;9.064;2022-10-16T00:54:54;100075.63;;;15.14
73734;BMP280;62039;50.000;9.064;2022-10-16T00:57:21;100070.97;;;15.16
73734;BMP280;62039;50.000;9.064;2022-10-16T00:59:48;100077.66;;;15.19
73734;BMP280;62039;50.000;9.064;2022-10-16T01:02:17;100073.81;;;15.21
73734;BMP280;62039;50.000;9.064;2022-10-16T01:04:46;100065.94;;;15.21
73734;BMP280;62039;50.000;9.064;2022-10-16T01:07:18;100067.94;;;15.19
73734;BMP280;62039;50.000;9.064;2022-10-16T01:09:53;100059.44;;;15.17
73734;BMP280;62039;50.000;9.064;2022-10-16T01:12:28;100065.91;;;15.15
73734;BMP280;62039;50.000;9.064;2022-10-16T01:15:05;100069.72;;;15.12
73734;BMP280;62039;50.000;9.064;2022-10-16T01:17:41;100078.03;;;15.09
73734;BMP280;62039;50.000;9.064;2022-10-16T01:20:14;100080.84;;;15.08
73734;BMP280;62039;50.000;9.064;2022-10-16T01:23:06;100075.97;;;15.05
73734;BMP280;62039;50.000;9.064;2022-10-16T01:26:09;100079.81;;;15.02
73734;BMP280;62039;50.000;9.064;2022-10-16T01:28:43;100084.44;;;15.00
73734;BMP280;62039;50.000;9.064;2022-10-16T01:31:15;100088.91;;;15.00
73734;BMP280;62039;50.000;9.064;2022-10-16T01:33:46;100085.25;;;15.01
73734;BMP280;62039;50.000;9.064;2022-10-16T01:36:16;100088.72;;;15.01
73734;BMP280;62039;50.000;9.064;2022-10-16T01:38:47;100098.22;;;15.02
73734;BMP280;62039;50.000;9.064;2022-10-16T01:41:19;100089.34;;;15.03
73734;BMP280;62039;50.000;9.064;2022-10-16T01:43:53;100094.59;;;15.03
73734;BMP280;62039;50.000;9.064;2022-10-16T01:46:22;100095.38;;;15.04
73734;BMP280;62039;50.000;9.064;2022-10-16T01:48:50;100106.72;;;15.04
73734;BMP280;62039;50.000;9.064;2022-10-16T01:51:19;100110.16;;;15.05
73734;BMP280;62039;50.000;9.064;2022-10-16T01:53:53;100101.91;;;15.08
73734;BMP280;62039;50.000;9.064;2022-10-16T01:56:21;100110.59;;;15.08
73734;BMP280;62039;50.000;9.064;2022-10-16T01:58:53;100108.38;;;15.12
73734;BMP280;62039;50.000;9.064;2022-10-16T02:01:22;100105.56;;;15.13
73734;BMP280;62039;50.000;9.064;2022-10-16T02:03:51;100098.28;;;15.15
73734;BMP280;62039;50.000;9.064;2022-10-16T02:06:20;100091.41;;;15.14
73734;BMP280;62039;50.000;9.064;2022-10-16T02:08:46;100098.66;;;15.12
73734;BMP280;62039;50.000;9.064;2022-10-16T02:11:13;100092.41;;;15.13
73734;BMP280;62039;50.000;9.064;2022-10-16T02:13:41;100095.84;;;15.14
73734;BMP280;62039;50.000;9.064;2022-10-16T02:16:11;100101.28;;;15.12
73734;BMP280;62039;50.000;9.064;2022-10-16T02:18:38;100103.94;;;15.12
73734;BMP280;62039;50.000;9.064;2022-10-16T02:21:10;100109.19;;;15.12
73734;BMP280;62039;50.000;9.064;2022-10-16T02:23:45;100110.41;;;15.10
73734;BMP280;62039;50.000;9.064;2022-10-16T02:26:22;100114.03;;;15.09
73734;BMP280;62039;50.000;9.064;2022-10-16T02:28:56;100114.22;;;15.07
73734;BMP280;62039;50.000;9.064;2022-10-16T02:31:29;100113.22;;;15.08
73734;BMP280;62039;50.000;9.064;2022-10-16T02:33:58;100116.47;;;15.10
73734;BMP280;62039;50.000;9.064;2022-10-16T02:36:26;100107.56;;;15.11
73734;BMP280;62039;50.000;9.064;2022-10-16T02:38:53;100119.72;;;15.12
73734;BMP280;62039;50.000;9.064;2022-10-16T02:41:20;100108.19;;;15.13
73734;BMP280;62039;50.000;9.064;2022-10-16T02:43:47;100107.19;;;15.14
73734;BMP280;62039;50.000;9.064;2022-10-16T02:46:14;100088.78;;;15.14
73734;BMP280;62039;50.000;9.064;2022-10-16T02:48:41;100107.19;;;15.14
73734;BMP280;62039;50.000;9.064;2022-10-16T02:51:08;100103.94;;;15.12
73734;BMP280;62039;50.000;9.064;2022-10-16T02:53:34;100109.19;;;15.12
73734;BMP280;62039;50.000;9.064;2022-10-16T02:56:01;100105.94;;;15.10
73734;BMP280;62039;50.000;9.064;2022-10-16T02:58:27;100103.53;;;15.09
73734;BMP280;62039;50.000;9.064;2022-10-16T03:00:55;100097.63;;;15.07
73734;BMP280;62039;50.000;9.064;2022-10-16T03:03:21;100097.00;;;15.05
73734;BMP280;62039;50.000;9.064;2022-10-16T03:05:49;100101.47;;;15.04
73734;BMP280;62039;50.000;9.064;2022-10-16T03:08:16;100097.22;;;15.03
73734;BMP280;62039;50.000;9.064;2022-10-16T03:10:42;100104.31;;;15.03
73734;BMP280;62039;50.000;9.064;2022-10-16T03:13:09;100106.13;;;15.02
73734;BMP280;62039;50.000;9.064;2022-10-16T03:15:35;100114.59;;;15.04
73734;BMP280;62039;50.000;9.064;2022-10-16T03:18:02;100117.25;;;15.04
73734;BMP280;62039;50.000;9.064;2022-10-16T03:20:28;100118.03;;;15.05
73734;BMP280;62039;50.000;9.064;2022-10-16T03:22:56;100118.69;;;15.07
73734;BMP280;62039;50.000;9.064;2022-10-16T03:25:23;100119.50;;;15.07
73734;BMP280;62039;50.000;9.064;2022-10-16T03:27:49;100120.94;;;15.10
73734;BMP280;62039;50.000;9.064;2022-10-16T03:30:16;100121.72;;;15.10
73734;BMP280;62039;50.000;9.064;2022-10-16T03:32:43;100135.09;;;15.09
73734;BMP280;62039;50.000;9.064;2022-10-16T03:35:10;100133.47;;;15.08
73734;BMP280;62039;50.000;9.064;2022-10-16T03:37:36;100129.00;;;15.08
73734;BMP280;62039;50.000;9.064;2022-10-16T03:40:05;100139.53;;;15.08
73734;BMP280;62039;50.000;9.064;2022-10-16T03:42:32;100130.00;;;15.07
73734;BMP280;62039;50.000;9.064;2022-10-16T03:44:59;100125.56;;;15.08
73734;BMP280;62039;50.000;9.064;2022-10-16T03:47:25;100131.63;;;15.08
73734;BMP280;62039;50.000;9.064;2022-10-16T03:49:52;100136.91;;;15.08
73734;BMP280;62039;50.000;9.064;2022-10-16T03:52:18;100132.66;;;15.07
73734;BMP280;62039;50.000;9.064;2022-10-16T03:54:45;100131.84;;;15.07
73734;BMP280;62039;50.000;9.064;2022-10-16T03:57:13;100133.47;;;15.08
73734;BMP280;62039;50.000;9.064;2022-10-16T03:59:39;100143.97;;;15.08
73734;BMP280;62039;50.000;9.064;2022-10-16T04:02:06;100147.25;;;15.10
73734;BMP280;62039;50.000;9.064;2022-10-16T04:04:34;100152.91;;;15.13
73734;BMP280;62039;50.000;9.064;2022-10-16T04:07:03;100152.53;;;15.16
73734;BMP280;62039;50.000;9.064;2022-10-16T04:09:29;100148.06;;;15.17
73734;BMP280;62039;50.000;9.064;2022-10-16T04:11:56;100147.28;;;15.16
73734;BMP280;62039;50.000;9.064;2022-10-16T04:14:24;100149.09;;;15.16
73734;BMP280;62039;50.000;9.064;2022-10-16T04:16:50;100150.09;;;15.15
73734;BMP280;62039;50.000;9.064;2022-10-16T04:19:17;100156.34;;;15.14
73734;BMP280;62039;50.000;9.064;2022-10-16T04:21:44;100165.06;;;15.14
73734;BMP280;62039;50.000;9.064;2022-10-16T04:24:10;100159.00;;;15.14
73734;BMP280;62039;50.000;9.064;2022-10-16T04:26:37;100149.28;;;15.14
73734;BMP280;62039;50.000;9.064;2022-10-16T04:29:03;100139.75;;;15.13
73734;BMP280;62039;50.000;9.064;2022-10-16T04:31:34;100136.31;;;15.13
73734;BMP280;62039;50.000;9.064;2022-10-16T04:34:01;100153.28;;;15.10
73734;BMP280;62039;50.000;9.064;2022-10-16T04:36:27;100161.19;;;15.10
73734;BMP280;62039;50.000;9.064;2022-10-16T04:38:54;100164.22;;;15.07
73734;BMP280;62039;50.000;9.064;2022-10-16T04:41:21;100174.72;;;15.07
73734;BMP280;62039;50.000;9.064;2022-10-16T04:43:47;100171.09;;;15.08
73734;BMP280;62039;50.000;9.064;2022-10-16T04:46:14;100178.00;;;15.09
73734;BMP280;62039;50.000;9.064;2022-10-16T04:48:42;100177.41;;;15.14
73734;BMP280;62039;50.000;9.064;2022-10-16T04:51:08;100167.50;;;15.16
73734;BMP280;62039;50.000;9.064;2022-10-16T04:53:35;100156.16;;;15.15
73734;BMP280;62039;50.000;9.064;2022-10-16T04:56:01;100158.81;;;15.15
73734;BMP280;62039;50.000;9.064;2022-10-16T04:58:28;100158.16;;;15.13
73734;BMP280;62039;50.000;9.064;2022-10-16T05:00:54;100163.44;;;15.13
73734;BMP280;62039;50.000;9.064;2022-10-16T05:03:21;100162.63;;;15.13
73734;BMP280;62039;50.000;9.064;2022-10-16T05:05:49;100158.34;;;15.12
73734;BMP280;62039;50.000;9.064;2022-10-16T05:08:16;100154.31;;;15.09
73734;BMP280;62039;50.000;9.064;2022-10-16T05:10:44;100154.50;;;15.08
73734;BMP280;62039;50.000;9.064;2022-10-16T05:13:11;100148.81;;;15.04
73734;BMP280;62039;50.000;9.064;2022-10-16T05:15:38;100165.81;;;15.02
73734;BMP280;62039;50.000;9.064;2022-10-16T05:18:04;100166.63;;;15.02
73734;BMP280;62039;50.000;9.064;2022-10-16T05:20:31;100164.81;;;15.03
73734;BMP280;62039;50.000;9.064;2022-10-16T05:22:59;100167.44;;;15.03
73734;BMP280;62039;50.000;9.064;2022-10-16T05:25:26;100156.91;;;15.03
73734;BMP280;62039;50.000;9.064;2022-10-16T05:27:52;100158.50;;;15.04
73734;BMP280;62039;50.000;9.064;2022-10-16T05:30:19;100155.88;;;15.04
73734;BMP280;62039;50.000;9.064;2022-10-16T05:32:46;100159.31;;;15.04
73734;BMP280;62039;50.000;9.064;2022-10-16T05:35:13;100163.59;;;15.05
73734;BMP280;62039;50.000;9.064;2022-10-16T05:37:40;100157.31;;;15.06
73734;BMP280;62039;50.000;9.064;2022-10-16T05:40:09;100156.50;;;15.06
73734;BMP280;62039;50.000;9.064;2022-10-16T05:42:35;100168.66;;;15.07
73734;BMP280;62039;50.000;9.064;2022-10-16T05:45:02;100167.47;;;15.09
73734;BMP280;62039;50.000;9.064;2022-10-16T05:47:29;100165.44;;;15.11
73734;BMP280;62039;50.000;9.064;2022-10-16T05:49:56;100171.50;;;15.12
73734;BMP280;62039;50.000;9.064;2022-10-16T05:52:22;100182.47;;;15.15
73734;BMP280;62039;50.000;9.064;2022-10-16T05:54:49;100177.81;;;15.17
73734;BMP280;62039;50.000;9.064;2022-10-16T05:57:17;100167.91;;;15.19
73734;BMP280;62039;50.000;9.064;2022-10-16T05:59:43;100178.44;;;15.19
73734;BMP280;62039;50.000;9.064;2022-10-16T06:02:12;100181.69;;;15.21
73734;BMP280;62039;50.000;9.064;2022-10-16T06:04:39;100185.97;;;15.22
73734;BMP280;62039;50.000;9.064;2022-10-16T06:07:05;100186.78;;;15.23
73734;BMP280;62039;50.000;9.064;2022-10-16T06:09:32;100190.00;;;15.25
73734;BMP280;62039;50.000;9.064;2022-10-16T06:11:58;100189.00;;;15.26
73734;BMP280;62039;50.000;9.064;2022-10-16T06:14:26;100191.63;;;15.26
73734;BMP280;62039;50.000;9.064;2022-10-16T06:16:53;100187.38;;;15.25
73734;BMP280;62039;50.000;9.064;2022-10-16T06:19:19;100202.97;;;15.26
73734;BMP280;62039;50.000;9.064;2022-10-16T06:21:46;100221.41;;;15.26
73734;BMP280;62039;50.000;9.064;2022-10-16T06:24:12;100209.06;;;15.27
73734;BMP280;62039;50.000;9.064;2022-10-16T06:26:39;100208.06;;;15.28
73734;BMP280;62039;50.000;9.064;2022-10-16T06:29:05;100209.69;;;15.29
73734;BMP280;62039;50.000;9.064;2022-10-16T06:31:33;100228.09;;;15.29
73734;BMP280;62039;50.000;9.064;2022-10-16T06:34:00;100228.69;;;15.31
73734;BMP280;62039;50.000;9.064;2022-10-16T06:36:27;100224.47;;;15.30
73734;BMP280;62039;50.000;9.064;2022-10-16T06:38:53;100231.53;;;15.29
73734;BMP280;62039;50.000;9.064;2022-10-16T06:41:21;100227.28;;;15.28
73734;BMP280;62039;50.000;9.064;2022-10-16T06:43:48;100230.28;;;15.25
73734;BMP280;62039;50.000;9.064;2022-10-16T06:46:18;100241.81;;;15.24
73734;BMP280;62039;50.000;9.064;2022-10-16T06:48:46;100235.94;;;15.22
73734;BMP280;62039;50.000;9.064;2022-10-16T06:51:14;100241.22;;;15.22
73734;BMP280;62039;50.000;9.064;2022-10-16T06:53:42;100236.31;;;15.19
73734;BMP280;62039;50.000;9.064;2022-10-16T06:56:28;100236.72;;;15.16
73734;BMP280;62039;50.000;9.064;2022-10-16T06:58:55;100237.91;;;15.14
73734;BMP280;62039;50.000;9.064;2022-10-16T07:01:23;100234.66;;;15.12
73734;BMP280;62039;50.000;9.064;2022-10-16T07:03:51;100236.88;;;15.08
73734;BMP280;62039;50.000;9.064;2022-10-16T07:06:19;100229.97;;;15.07
73734;BMP280;62039;50.000;9.064;2022-10-16T07:08:47;100240.69;;;15.06
73734;BMP280;62039;50.000;9.064;2022-10-16T07:11:15;100243.31;;;15.06
73734;BMP280;62039;50.000;9.064;2022-10-16T07:13:43;100246.94;;;15.05
73734;BMP280;62039;50.000;9.064;2022-10-16T07:16:13;100256.47;;;15.06
73734;BMP280;62039;50.000;9.064;2022-10-16T07:18:40;100264.34;;;15.06
73734;BMP280;62039;50.000;9.064;2022-10-16T07:21:09;100279.94;;;15.07
73734;BMP280;62039;50.000;9.064;2022-10-16T07:23:37;100271.06;;;15.08
73734;BMP280;62039;50.000;9.064;2022-10-16T07:26:04;100278.78;;;15.10
73734;BMP280;62039;50.000;9.064;2022-10-16T07:28:31;100273.28;;;15.11
73734;BMP280;62039;50.000;9.064;2022-10-16T07:31:00;100277.56;;;15.12
73734;BMP280;62039;50.000;9.064;2022-10-16T07:33:27;100270.66;;;15.11
73734;BMP280;62039;50.000;9.064;2022-10-16T07:35:54;100273.94;;;15.13
73734;BMP280;62039;50.000;9.064;2022-10-16T07:38:23;100296.59;;;15.14
73734;BMP280;62039;50.000;9.064;2022-10-16T07:40:56;100296.22;;;15.17
73734;BMP280;62039;50.000;9.064;2022-10-16T07:43:22;100297.84;;;15.18
73734;BMP280;62039;50.000;9.064;2022-10-16T07:45:50;100287.94;;;15.20
73734;BMP280;62039;50.000;9.064;2022-10-16T07:48:22;100295.47;;;15.23
73734;BMP280;62039;50.000;9.064;2022-10-16T07:50:49;100295.25;;;15.25
73734;BMP280;62039;50.000;9.064;2022-10-16T07:53:15;100302.78;;;15.28
73734;BMP280;62039;50.000;9.064;2022-10-16T07:55:43;100317.34;;;15.30
73734;BMP280;62039;50.000;9.064;2022-10-16T07:58:10;100314.53;;;15.32
73734;BMP280;62039;50.000;9.064;2022-10-16T08:00:37;100302.84;;;15.35
73734;BMP280;62039;50.000;9.064;2022-10-16T08:03:03;100316.63;;;15.37
73734;BMP280;62039;50.000;9.064;2022-10-16T08:05:32;100315.41;;;15.39
73734;BMP280;62039;50.000;9.064;2022-10-16T08:07:59;100319.47;;;15.42
73734;BMP280;62039;50.000;9.064;2022-10-16T08:10:28;100313.22;;;15.43
73734;BMP280;62039;50.000;9.064;2022-10-16T08:12:56;100322.34;;;15.47
73734;BMP280;62039;50.000;9.064;2022-10-16T08:15:22;100324.00;;;15.48
73734;BMP280;62039;50.000;9.064;2022-10-16T08:17:57;100325.25;;;15.52
73734;BMP280;62039;50.000;9.064;2022-10-16T08:20:24;100320.78;;;15.52
73734;BMP280;62039;50.000;9.064;2022-10-16T08:22:50;100318.78;;;15.54
73734;BMP280;62039;50.000;9.064;2022-10-16T08:25:17;100326.50;;;15.56
73734;BMP280;62039;50.000;9.064;2022-10-16T08:27:43;100324.47;;;15.58
73734;BMP280;62039;50.000;9.064;2022-10-16T08:30:12;100338.91;;;15.62
73734;BMP280;62039;50.000;9.064;2022-10-16T08:32:39;100340.31;;;15.64
73734;BMP280;62039;50.000;9.064;2022-10-16T08:35:06;100348.66;;;15.68
73734;BMP280;62039;50.000;9.064;2022-10-16T08:37:33;100352.72;;;15.71
73734;BMP280;62039;50.000;9.064;2022-10-16T08:39:59;100362.66;;;15.75
73734;BMP280;62039;50.000;9.064;2022-10-16T08:42:39;100368.16;;;15.80
73734;BMP280;62039;50.000;9.064;2022-10-16T08:45:33;100371.63;;;15.81
73734;BMP280;62039;50.000;9.064;2022-10-16T08:48:10;100372.03;;;15.84
73734;BMP280;62039;50.000;9.064;2022-10-16T08:50:41;100380.38;;;15.88
73734;BMP280;62039;50.000;9.064;2022-10-16T08:53:14;100390.94;;;15.94
73734;BMP280;62039;50.000;9.064;2022-10-16T08:55:43;100382.47;;;15.99
73734;BMP280;62039;50.000;9.064;2022-10-16T08:58:13;100381.91;;;16.03
73734;BMP280;62039;50.000;9.064;2022-10-16T09:00:44;100379.84;;;16.05
73734;BMP280;62039;50.000;9.064;2022-10-16T09:03:19;100396.28;;;16.07
73734;BMP280;62039;50.000;9.064;2022-10-16T09:06:13;100408.47;;;16.08
73734;BMP280;62039;50.000;9.064;2022-10-16T09:08:50;100408.88;;;16.12
73734;BMP280;62039;50.000;9.064;2022-10-16T09:11:24;100414.59;;;16.16
73734;BMP280;62039;50.000;9.064;2022-10-16T09:14:04;100417.66;;;16.19
73734;BMP280;62039;50.000;9.064;2022-10-16T09:16:36;100421.75;;;16.22
73734;BMP280;62039;50.000;9.064;2022-10-16T09:19:13;100422.56;;;16.22
73734;BMP280;62039;50.000;9.064;2022-10-16T09:21:42;100417.47;;;16.21
73734;BMP280;62039;50.000;9.064;2022-10-16T09:24:13;100420.94;;;16.21
73734;BMP280;62039;50.000;9.064;2022-10-16T09:26:40;100422.94;;;16.19
73734;BMP280;62039;50.000;9.064;2022-10-16T09:29:09;100418.47;;;16.20
73734;BMP280;62039;50.000;9.064;2022-10-16T09:31:37;100425.75;;;16.18
73734;BMP280;62039;50.000;9.064;2022-10-16T09:34:05;100431.22;;;16.16
73734;BMP280;62039;50.000;9.064;2022-10-16T09:36:38;100420.88;;;16.15
73734;BMP280;62039;50.000;9.064;2022-10-16T09:39:07;100434.03;;;16.15
73734;BMP280;62039;50.000;9.064;2022-10-16T09:41:35;100435.66;;;16.16
73734;BMP280;62039;50.000;9.064;2022-10-16T09:44:05;100448.84;;;16.16
73734;BMP280;62039;50.000;9.064;2022-10-16T09:46:33;100449.47;;;16.18
73734;BMP280;62039;50.000;9.064;2022-10-16T09:49:03;100460.28;;;16.23
73734;BMP280;62039;50.000;9.064;2022-10-16T09:51:31;100460.69;;;16.26
73734;BMP280;62039;50.000;9.064;2022-10-16T09:54:00;100456.66;;;16.30
73734;BMP280;62039;50.000;9.064;2022-10-16T09:56:28;100460.72;;;16.33
73734;BMP280;62039;50.000;9.064;2022-10-16T09:58:57;100465.63;;;16.36
73734;BMP280;62039;50.000;9.064;2022-10-16T10:01:27;100455.69;;;16.38
73734;BMP280;62039;50.000;9.064;2022-10-16T10:03:56;100461.56;;;16.40
73734;BMP280;62039;50.000;9.064;2022-10-16T10:06:26;100453.28;;;16.43
73734;BMP280;62039;50.000;9.064;2022-10-16T10:08:58;100460.78;;;16.46
73734;BMP280;62039;50.000;9.064;2022-10-16T10:11:53;100462.59;;;16.45
73734;BMP280;62039;50.000;9.064;2022-10-16T10:14:23;100471.59;;;16.51
73734;BMP280;62039;50.000;9.064;2022-10-16T10:16:51;100470.81;;;16.57
73734;BMP280;62039;50.000;9.064;2022-10-16T10:19:20;100465.13;;;16.60
73734;BMP280;62039;50.000;9.064;2022-10-16T10:21:49;100479.34;;;16.66
73734;BMP280;62039;50.000;9.064;2022-10-16T10:24:18;100476.13;;;16.70
73734;BMP280;62039;50.000;9.064;2022-10-16T10:26:56;100473.28;;;16.78
73734;BMP280;62039;50.000;9.064;2022-10-16T10:29:43;100475.78;;;16.86
73734;BMP280;62039;50.000;9.064;2022-10-16T10:32:19;100463.06;;;16.97
73734;BMP280;62039;50.000;9.064;2022-10-16T10:35:07;100465.53;;;17.05
73734;BMP280;62039;50.000;9.064;2022-10-16T10:37:50;100470.03;;;17.17
73734;BMP280;62039;50.000;9.064;2022-10-16T10:40:28;100468.22;;;17.31
73734;BMP280;62039;50.000;9.064;2022-10-16T10:43:02;100472.50;;;17.45
73734;BMP280;62039;50.000;9.064;2022-10-16T10:45:38;100465.63;;;17.57
73734;BMP280;62039;50.000;9.064;2022-10-16T10:48:20;100470.50;;;17.67
73734;BMP280;62039;50.000;9.064;2022-10-16T10:50:49;100447.34;;;17.76
73734;BMP280;62039;50.000;9.064;2022-10-16T10:53:33;100446.94;;;17.85
73734;BMP280;62039;50.000;9.064;2022-10-16T10:56:14;100446.50;;;17.95
73734;BMP280;62039;50.000;9.064;2022-10-16T10:59:02;100444.44;;;18.03
73734;BMP280;62039;50.000;9.064;2022-10-16T11:01:39;100450.13;;;18.14
73734;BMP280;62039;50.000;9.064;2022-10-16T11:04:32;100452.53;;;18.22
73734;BMP280;62039;50.000;9.064;2022-10-16T11:07:03;100448.88;;;18.29
73734;BMP280;62039;50.000;9.064;2022-10-16T11:09:34;100439.09;;;18.36
73734;BMP280;62039;50.000;9.064;2022-10-16T11:12:07;100433.59;;;18.45
73734;BMP280;62039;50.000;9.064;2022-10-16T11:14:40;100433.13;;;18.54
73734;BMP280;62039;50.000;9.064;2022-10-16T11:17:12;100434.94;;;18.67
73734;BMP280;62039;50.000;9.064;2022-10-16T11:19:43;100432.22;;;18.80
73734;BMP280;62039;50.000;9.064;2022-10-16T11:22:17;100442.97;;;18.92
73734;BMP280;62039;50.000;9.064;2022-10-16T11:24:49;100440.44;;;19.03
73734;BMP280;62039;50.000;9.064;2022-10-16T11:27:23;100429.41;;;19.13
73734;BMP280;62039;50.000;9.064;2022-10-16T11:29:56;100432.59;;;19.21
73734;BMP280;62039;50.000;9.064;2022-10-16T11:32:28;100436.00;;;19.29
73734;BMP280;62039;50.000;9.064;2022-10-16T11:35:02;100444.72;;;19.36
73734;BMP280;62039;50.000;9.064;2022-10-16T11:37:32;100443.03;;;19.41
73734;BMP280;62039;50.000;9.064;2022-10-16T11:40:15;100445.06;;;19.46
73734;BMP280;62039;50.000;9.064;2022-10-16T11:42:48;100447.03;;;19.50
73734;BMP280;62039;50.000;9.064;2022-10-16T11:45:24;100441.72;;;19.57
73734;BMP280;62039;50.000;9.064;2022-10-16T11:47:58;100431.88;;;19.64
73734;BMP280;62039;50.000;9.064;2022-10-16T11:50:31;100435.28;;;19.71
73734;BMP280;62039;50.000;9.064;2022-10-16T11:53:04;100441.53;;;19.77
73734;BMP280;62039;50.000;9.064;2022-10-16T11:55:34;100452.53;;;19.80
73734;BMP280;62039;50.000;9.064;2022-10-16T11:58:05;100444.72;;;19.85
73734;BMP280;62039;50.000;9.064;2022-10-16T12:00:39;100449.38;;;19.90
73734;BMP280;62039;50.000;9.064;2022-10-16T12:03:12;100443.84;;;19.91
73734;BMP280;62039;50.000;9.064;2022-10-16T12:05:55;100441.81;;;19.93
73734;BMP280;62039;50.000;9.064;2022-10-16T12:08:24;100434.88;;;19.92
73734;BMP280;62039;50.000;9.064;2022-10-16T12:10:52;100439.16;;;19.93
73734;BMP280;62039;50.000;9.064;2022-10-16T12:13:30;100434.06;;;19.92
73734;BMP280;62039;50.000;9.064;2022-10-16T12:16:20;100434.28;;;19.90
73734;BMP280;62039;50.000;9.064;2022-10-16T12:18:48;100440.19;;;19.92
73734;BMP280;62039;50.000;9.064;2022-10-16T12:21:16;100439.16;;;19.93
73734;BMP280;62039;50.000;9.064;2022-10-16T12:23:47;100434.44;;;19.95
73734;BMP280;62039;50.000;9.064;2022-10-16T12:26:23;100439.72;;;19.95
73734;BMP280;62039;50.000;9.064;2022-10-16T12:28:50;100434.00;;;19.98
73734;BMP280;62039;50.000;9.064;2022-10-16T12:31:17;100429.31;;;20.01
73734;BMP280;62039;50.000;9.064;2022-10-16T12:33:55;100429.88;;;20.03
73734;BMP280;62039;50.000;9.064;2022-10-16T12:36:28;100438.63;;;20.03
73734;BMP280;62039;50.000;9.064;2022-10-16T12:38:55;100443.13;;;20.03
73734;BMP280;62039;50.000;9.064;2022-10-16T12:41:28;100442.69;;;20.06
73734;BMP280;62039;50.000;9.064;2022-10-16T12:43:56;100441.22;;;20.10
73734;BMP280;62039;50.000;9.064;2022-10-16T12:46:33;100452.38;;;20.18
73734;BMP280;62039;50.000;9.064;2022-10-16T12:49:17;100445.09;;;20.32
73734;BMP280;62039;50.000;9.064;2022-10-16T12:51:45;100448.19;;;20.47
73734;BMP280;62039;50.000;9.064;2022-10-16T12:54:13;100439.97;;;20.67
73734;BMP280;62039;50.000;9.064;2022-10-16T12:56:55;100439.28;;;20.90
73734;BMP280;62039;50.000;9.064;2022-10-16T12:59:31;100442.00;;;21.13
73734;BMP280;62039;50.000;9.064;2022-10-16T13:02:19;100451.66;;;21.37
73734;BMP280;62039;50.000;9.064;2022-10-16T13:05:13;100446.19;;;21.62
73734;BMP280;62039;50.000;9.064;2022-10-16T13:07:51;100443.72;;;21.84
73734;BMP280;62039;50.000;9.064;2022-10-16T13:10:24;100455.31;;;22.01
73734;BMP280;62039;50.000;9.064;2022-10-16T13:16:04;100454.81;;;22.27
73734;BMP280;62039;50.000;9.064;2022-10-16T13:18:38;100442.44;;;22.33
73734;BMP280;62039;50.000;9.064;2022-10-16T13:21:18;100461.97;;;22.39
73734;BMP280;62039;50.000;9.064;2022-10-16T13:23:51;100461.28;;;22.43
73734;BMP280;62039;50.000;9.064;2022-10-16T13:26:28;100459.16;;;22.45
73734;BMP280;62039;50.000;9.064;2022-10-16T13:29:00;100450.16;;;22.46
73734;BMP280;62039;50.000;9.064;2022-10-16T13:31:28;100447.47;;;22.46
73734;BMP280;62039;50.000;9.064;2022-10-16T13:33:58;100445.88;;;22.45
73734;BMP280;62039;50.000;9.064;2022-10-16T13:36:26;100446.69;;;22.46
73734;BMP280;62039;50.000;9.064;2022-10-16T13:39:01;100454.09;;;22.44
73734;BMP280;62039;50.000;9.064;2022-10-16T13:41:31;100445.19;;;22.38
73734;BMP280;62039;50.000;9.064;2022-10-16T13:43:57;100454.47;;;22.36
73734;BMP280;62039;50.000;9.064;2022-10-16T13:46:25;100459.44;;;22.32
73734;BMP280;62039;50.000;9.064;2022-10-16T13:48:59;100458.06;;;22.29
73734;BMP280;62039;50.000;9.064;2022-10-16T13:51:27;100453.69;;;22.23
73734;BMP280;62039;50.000;9.064;2022-10-16T13:53:55;100460.50;;;22.19
73734;BMP280;62039;50.000;9.064;2022-10-16T13:56:24;100456.69;;;22.15
73734;BMP280;62039;50.000;9.064;2022-10-16T13:58:58;100459.25;;;22.10
73734;BMP280;62039;50.000;9.064;2022-10-16T14:01:27;100454.84;;;22.04
73734;BMP280;62039;50.000;9.064;2022-10-16T14:04:02;100450.00;;;22.01
73734;BMP280;62039;50.000;9.064;2022-10-16T14:06:30;100445.63;;;21.95
73734;BMP280;62039;50.000;9.064;2022-10-16T14:09:00;100460.38;;;21.91
73734;BMP280;62039;50.000;9.064;2022-10-16T14:11:28;100466.63;;;21.85
73734;BMP280;62039;50.000;9.064;2022-10-16T14:13:55;100476.13;;;21.81
73734;BMP280;62039;50.000;9.064;2022-10-16T14:16:23;100473.91;;;21.78